HTPE/PMA METAR and TAF weather

Enter ICAO airport designator
Station Type Date Time Source
HTPE METAR 2019/04/24 00:00 UTC NOAA

HTPE 240000Z 00000KT 9999 SCT016 29/27 Q1010


Station Type Date Time Source
HTPE Decoded METAR 2019/04/24 00:00 UTC NOAA

Pemba / Karume Airport, Tanzania (HTPE) 05-15S 039-49E
Apr 23, 2019 - 08:00 PM EDT / 2019.04.24 0000 UTC
Wind: Calm:0
Visibility: greater than 7 mile(s):0
Sky conditions: partly cloudy
Temperature: 84 F (29 C)
Dew Point: 80 F (27 C)
Relative Humidity: 88%
Pressure (altimeter): 29.83 in. Hg (1010 hPa)
ob: HTPE 240000Z 00000KT 9999 SCT016 29/27 Q1010
cycle: 0

Station Type Date Time Source
HTPE TAF 2012/09/13 12:46 UTC NOAA

TAF HTPE 131000Z 1312/1412 16010KT 9999 SHRA SCT024 BKN080
BECMG 1315/1318 SCT021
BECMG 1321/1324 12005KT FEW019
BECMG 1403/1406 17005KT SCT018
BECMG 1409/1412 15010KT 9999 FEW024

Example: see airport list